Rardin, Illinois
Current Conditions -  °F | °C
As of 5:53 PM on Thursday 18 Dec 2014 (Local Time) from KMTO Reporting Station
Overcast Overcast  
Wind Chill: 22°   Ceiling: 5500
Heat Index: 28°   Visibility: 8mi
Dew Point: 22°   Wind: 6mph
Humidity: 78%   Direction: 10°N
Pressure: 30.24"   Gusts: NA
Location:  39.5548°N, 88.1725°W
Report Text: KMTO 182353Z AUTO 01005KT 8SM OVC055 M02/M06 A3024 RMK AO2 SLP251 T10221056 11011 21028 53005
Loading
Personal Weather Stations






























Interactive Weather Map New forecast layout! Learn more

10-Day Weather Forecast

Advertisements
Track Severe Weather on mobile